Avondale, Arizona
Current Conditions -  °F | °C
As of 8:47 PM on Wednesday 22 Oct 2014 (Local Time) from KGYR Reporting Station
Few Clouds Few Clouds  
Wind Chill: 77°   Ceiling: Unl
Heat Index: 78°   Visibility: 10mi
Dew Point: 54°   Wind: 0mph
Humidity: 44%   Direction: NA
Pressure: 29.94"   Gusts: NA
Location:  33.44°N, 112.34°W
Report Text: KGYR 230347Z 00000KT 10SM FEW250 25/12 A2994 RMK LAST
Loading
Personal Weather Stations






























Interactive Weather Map
Tropical Storm Tracking
New forecast layout! Learn more

10-Day Weather Forecast

Advertisements
Track Severe Weather on mobile